sensor_id;sensor_type;location;lat;lon;timestamp;P1;durP1;ratioP1;P2;durP2;ratioP2
8964;SDS011;4517;49.020;12.066;2022-08-16T00:00:30;8.80;;;7.00;;
8964;SDS011;4517;49.020;12.066;2022-08-16T00:03:00;7.17;;;6.57;;
8964;SDS011;4517;49.020;12.066;2022-08-16T00:05:26;7.20;;;6.53;;
8964;SDS011;4517;49.020;12.066;2022-08-16T00:07:53;6.40;;;5.90;;
8964;SDS011;4517;49.020;12.066;2022-08-16T00:10:19;6.73;;;6.13;;
8964;SDS011;4517;49.020;12.066;2022-08-16T00:12:48;7.20;;;6.50;;
8964;SDS011;4517;49.020;12.066;2022-08-16T00:15:57;6.67;;;6.07;;
8964;SDS011;4517;49.020;12.066;2022-08-16T00:18:07;7.03;;;6.50;;
8964;SDS011;4517;49.020;12.066;2022-08-16T00:20:37;7.10;;;6.53;;
8964;SDS011;4517;49.020;12.066;2022-08-16T00:23:05;5.90;;;5.50;;
8964;SDS011;4517;49.020;12.066;2022-08-16T00:25:31;7.03;;;6.30;;
8964;SDS011;4517;49.020;12.066;2022-08-16T00:27:57;6.50;;;6.00;;
8964;SDS011;4517;49.020;12.066;2022-08-16T00:30:23;8.80;;;6.57;;
8964;SDS011;4517;49.020;12.066;2022-08-16T00:32:51;6.63;;;6.03;;
8964;SDS011;4517;49.020;12.066;2022-08-16T00:35:23;8.90;;;6.00;;
8964;SDS011;4517;49.020;12.066;2022-08-16T00:37:51;5.97;;;5.47;;
8964;SDS011;4517;49.020;12.066;2022-08-16T00:40:22;7.33;;;6.50;;
8964;SDS011;4517;49.020;12.066;2022-08-16T00:42:57;7.00;;;6.40;;
8964;SDS011;4517;49.020;12.066;2022-08-16T00:45:27;6.67;;;6.07;;
8964;SDS011;4517;49.020;12.066;2022-08-16T00:48:15;7.17;;;6.50;;
8964;SDS011;4517;49.020;12.066;2022-08-16T00:50:42;6.57;;;6.07;;
8964;SDS011;4517;49.020;12.066;2022-08-16T00:53:10;11.77;;;6.80;;
8964;SDS011;4517;49.020;12.066;2022-08-16T00:55:38;8.10;;;6.10;;
8964;SDS011;4517;49.020;12.066;2022-08-16T00:58:07;7.17;;;6.47;;
8964;SDS011;4517;49.020;12.066;2022-08-16T01:00:34;6.60;;;6.00;;
8964;SDS011;4517;49.020;12.066;2022-08-16T01:03:02;8.60;;;6.67;;
8964;SDS011;4517;49.020;12.066;2022-08-16T01:05:32;6.40;;;5.80;;
8964;SDS011;4517;49.020;12.066;2022-08-16T01:07:58;7.70;;;6.83;;
8964;SDS011;4517;49.020;12.066;2022-08-16T01:10:25;7.43;;;6.77;;
8964;SDS011;4517;49.020;12.066;2022-08-16T01:12:52;6.83;;;6.10;;
8964;SDS011;4517;49.020;12.066;2022-08-16T01:15:17;6.57;;;5.93;;
8964;SDS011;4517;49.020;12.066;2022-08-16T01:17:44;6.00;;;5.50;;
8964;SDS011;4517;49.020;12.066;2022-08-16T01:20:12;8.00;;;7.30;;
8964;SDS011;4517;49.020;12.066;2022-08-16T01:25:20;8.07;;;7.30;;
8964;SDS011;4517;49.020;12.066;2022-08-16T01:27:55;6.97;;;6.30;;
8964;SDS011;4517;49.020;12.066;2022-08-16T01:30:25;5.83;;;5.43;;
8964;SDS011;4517;49.020;12.066;2022-08-16T01:32:57;6.30;;;5.80;;
8964;SDS011;4517;49.020;12.066;2022-08-16T01:35:31;6.70;;;6.20;;
8964;SDS011;4517;49.020;12.066;2022-08-16T01:38:20;7.07;;;6.53;;
8964;SDS011;4517;49.020;12.066;2022-08-16T01:40:47;7.20;;;6.60;;
8964;SDS011;4517;49.020;12.066;2022-08-16T01:43:15;9.97;;;6.80;;
8964;SDS011;4517;49.020;12.066;2022-08-16T01:45:40;7.43;;;6.37;;
8964;SDS011;4517;49.020;12.066;2022-08-16T01:48:07;7.50;;;6.13;;
8964;SDS011;4517;49.020;12.066;2022-08-16T01:50:33;11.70;;;6.20;;
8964;SDS011;4517;49.020;12.066;2022-08-16T01:52:59;6.53;;;6.00;;
8964;SDS011;4517;49.020;12.066;2022-08-16T01:55:25;9.20;;;6.50;;
8964;SDS011;4517;49.020;12.066;2022-08-16T01:57:51;6.20;;;5.60;;
8964;SDS011;4517;49.020;12.066;2022-08-16T02:00:17;6.63;;;6.00;;
8964;SDS011;4517;49.020;12.066;2022-08-16T02:02:43;6.70;;;6.00;;
8964;SDS011;4517;49.020;12.066;2022-08-16T02:05:09;6.40;;;5.80;;
8964;SDS011;4517;49.020;12.066;2022-08-16T02:07:36;15.60;;;6.63;;
8964;SDS011;4517;49.020;12.066;2022-08-16T02:10:03;7.20;;;6.60;;
8964;SDS011;4517;49.020;12.066;2022-08-16T02:12:33;8.33;;;6.57;;
8964;SDS011;4517;49.020;12.066;2022-08-16T02:14:58;8.50;;;6.10;;
8964;SDS011;4517;49.020;12.066;2022-08-16T02:17:24;6.80;;;6.17;;
8964;SDS011;4517;49.020;12.066;2022-08-16T02:19:50;9.50;;;6.37;;
8964;SDS011;4517;49.020;12.066;2022-08-16T02:22:19;6.47;;;5.40;;
8964;SDS011;4517;49.020;12.066;2022-08-16T02:24:46;7.07;;;6.13;;
8964;SDS011;4517;49.020;12.066;2022-08-16T02:27:12;6.63;;;5.83;;
8964;SDS011;4517;49.020;12.066;2022-08-16T02:29:39;12.73;;;7.00;;
8964;SDS011;4517;49.020;12.066;2022-08-16T02:32:05;5.87;;;5.37;;
8964;SDS011;4517;49.020;12.066;2022-08-16T02:34:32;7.10;;;6.17;;
8964;SDS011;4517;49.020;12.066;2022-08-16T02:36:58;6.53;;;6.03;;
8964;SDS011;4517;49.020;12.066;2022-08-16T02:39:24;6.77;;;5.70;;
8964;SDS011;4517;49.020;12.066;2022-08-16T02:41:49;6.47;;;5.87;;
8964;SDS011;4517;49.020;12.066;2022-08-16T02:44:17;8.40;;;5.87;;
8964;SDS011;4517;49.020;12.066;2022-08-16T02:46:43;6.30;;;5.70;;
8964;SDS011;4517;49.020;12.066;2022-08-16T02:49:09;8.63;;;5.97;;
8964;SDS011;4517;49.020;12.066;2022-08-16T02:51:35;7.53;;;6.00;;
8964;SDS011;4517;49.020;12.066;2022-08-16T02:54:02;8.07;;;5.53;;
8964;SDS011;4517;49.020;12.066;2022-08-16T02:56:29;7.77;;;6.10;;
8964;SDS011;4517;49.020;12.066;2022-08-16T02:58:55;7.40;;;5.90;;
8964;SDS011;4517;49.020;12.066;2022-08-16T03:01:23;6.30;;;5.37;;
8964;SDS011;4517;49.020;12.066;2022-08-16T03:03:50;6.77;;;6.17;;
8964;SDS011;4517;49.020;12.066;2022-08-16T03:06:18;7.60;;;6.80;;
8964;SDS011;4517;49.020;12.066;2022-08-16T03:08:46;7.30;;;6.20;;
8964;SDS011;4517;49.020;12.066;2022-08-16T03:11:13;8.20;;;6.00;;
8964;SDS011;4517;49.020;12.066;2022-08-16T03:13:40;7.10;;;6.40;;
8964;SDS011;4517;49.020;12.066;2022-08-16T03:16:06;5.73;;;5.20;;
8964;SDS011;4517;49.020;12.066;2022-08-16T03:18:32;7.47;;;5.70;;
8964;SDS011;4517;49.020;12.066;2022-08-16T03:20:58;8.00;;;5.87;;
8964;SDS011;4517;49.020;12.066;2022-08-16T03:23:24;6.57;;;5.97;;
8964;SDS011;4517;49.020;12.066;2022-08-16T03:25:50;6.33;;;5.73;;
8964;SDS011;4517;49.020;12.066;2022-08-16T03:28:16;10.07;;;6.57;;
8964;SDS011;4517;49.020;12.066;2022-08-16T03:30:41;8.23;;;6.30;;
8964;SDS011;4517;49.020;12.066;2022-08-16T03:33:07;8.33;;;5.80;;
8964;SDS011;4517;49.020;12.066;2022-08-16T03:35:34;8.67;;;5.70;;
8964;SDS011;4517;49.020;12.066;2022-08-16T03:38:03;6.70;;;5.83;;
8964;SDS011;4517;49.020;12.066;2022-08-16T03:40:32;7.43;;;6.13;;
8964;SDS011;4517;49.020;12.066;2022-08-16T03:42:58;4.83;;;4.43;;
8964;SDS011;4517;49.020;12.066;2022-08-16T03:45:24;7.30;;;5.90;;
8964;SDS011;4517;49.020;12.066;2022-08-16T03:47:50;6.13;;;5.53;;
8964;SDS011;4517;49.020;12.066;2022-08-16T03:50:16;6.03;;;5.10;;
8964;SDS011;4517;49.020;12.066;2022-08-16T03:52:43;9.00;;;5.57;;
8964;SDS011;4517;49.020;12.066;2022-08-16T03:55:09;6.80;;;6.10;;
8964;SDS011;4517;49.020;12.066;2022-08-16T03:57:35;8.57;;;6.10;;
8964;SDS011;4517;49.020;12.066;2022-08-16T04:00:21;5.90;;;5.30;;
8964;SDS011;4517;49.020;12.066;2022-08-16T04:02:49;6.80;;;6.10;;
8964;SDS011;4517;49.020;12.066;2022-08-16T04:05:15;6.87;;;5.60;;
8964;SDS011;4517;49.020;12.066;2022-08-16T04:07:42;6.40;;;5.80;;
8964;SDS011;4517;49.020;12.066;2022-08-16T04:10:08;7.57;;;6.73;;
8964;SDS011;4517;49.020;12.066;2022-08-16T04:12:35;7.47;;;5.80;;
8964;SDS011;4517;49.020;12.066;2022-08-16T04:15:01;10.07;;;6.07;;
8964;SDS011;4517;49.020;12.066;2022-08-16T04:17:29;7.20;;;6.10;;
8964;SDS011;4517;49.020;12.066;2022-08-16T04:19:55;8.70;;;6.47;;
8964;SDS011;4517;49.020;12.066;2022-08-16T04:22:21;9.50;;;6.77;;
8964;SDS011;4517;49.020;12.066;2022-08-16T04:24:47;8.37;;;6.97;;
8964;SDS011;4517;49.020;12.066;2022-08-16T04:27:12;8.47;;;5.93;;
8964;SDS011;4517;49.020;12.066;2022-08-16T04:29:38;9.73;;;7.20;;
8964;SDS011;4517;49.020;12.066;2022-08-16T04:32:04;10.00;;;7.10;;
8964;SDS011;4517;49.020;12.066;2022-08-16T04:34:31;9.67;;;6.20;;
8964;SDS011;4517;49.020;12.066;2022-08-16T04:36:58;11.30;;;6.83;;
8964;SDS011;4517;49.020;12.066;2022-08-16T04:39:25;12.00;;;6.60;;
8964;SDS011;4517;49.020;12.066;2022-08-16T04:41:51;6.73;;;5.67;;
8964;SDS011;4517;49.020;12.066;2022-08-16T04:44:17;7.37;;;6.40;;
8964;SDS011;4517;49.020;12.066;2022-08-16T04:46:43;7.40;;;6.70;;
8964;SDS011;4517;49.020;12.066;2022-08-16T04:49:09;9.83;;;7.43;;
8964;SDS011;4517;49.020;12.066;2022-08-16T04:51:36;12.43;;;7.30;;
8964;SDS011;4517;49.020;12.066;2022-08-16T04:54:05;7.40;;;6.70;;
8964;SDS011;4517;49.020;12.066;2022-08-16T04:56:31;10.20;;;8.13;;
8964;SDS011;4517;49.020;12.066;2022-08-16T04:58:56;10.43;;;9.33;;
8964;SDS011;4517;49.020;12.066;2022-08-16T05:01:22;9.47;;;8.60;;
8964;SDS011;4517;49.020;12.066;2022-08-16T05:03:48;14.70;;;12.70;;
8964;SDS011;4517;49.020;12.066;2022-08-16T05:06:13;10.93;;;9.93;;
8964;SDS011;4517;49.020;12.066;2022-08-16T05:08:39;11.73;;;10.63;;
8964;SDS011;4517;49.020;12.066;2022-08-16T05:11:05;12.67;;;11.37;;
8964;SDS011;4517;49.020;12.066;2022-08-16T05:13:33;11.30;;;10.30;;
8964;SDS011;4517;49.020;12.066;2022-08-16T05:16:00;12.83;;;11.83;;
8964;SDS011;4517;49.020;12.066;2022-08-16T05:18:26;12.73;;;11.63;;
8964;SDS011;4517;49.020;12.066;2022-08-16T05:20:52;11.73;;;10.93;;
8964;SDS011;4517;49.020;12.066;2022-08-16T05:23:18;16.60;;;11.20;;
8964;SDS011;4517;49.020;12.066;2022-08-16T05:25:43;12.50;;;11.40;;
8964;SDS011;4517;49.020;12.066;2022-08-16T05:28:09;13.00;;;12.00;;
8964;SDS011;4517;49.020;12.066;2022-08-16T05:30:35;12.37;;;11.27;;
8964;SDS011;4517;49.020;12.066;2022-08-16T05:33:02;11.53;;;10.73;;
8964;SDS011;4517;49.020;12.066;2022-08-16T05:35:29;12.50;;;11.37;;
8964;SDS011;4517;49.020;12.066;2022-08-16T05:37:54;13.20;;;12.10;;
8964;SDS011;4517;49.020;12.066;2022-08-16T05:40:20;14.13;;;12.60;;
8964;SDS011;4517;49.020;12.066;2022-08-16T05:42:45;13.10;;;11.90;;
8964;SDS011;4517;49.020;12.066;2022-08-16T05:45:11;12.87;;;11.67;;
8964;SDS011;4517;49.020;12.066;2022-08-16T05:47:37;13.40;;;12.20;;
8964;SDS011;4517;49.020;12.066;2022-08-16T05:50:04;13.27;;;12.33;;
8964;SDS011;4517;49.020;12.066;2022-08-16T05:52:30;11.80;;;10.97;;
8964;SDS011;4517;49.020;12.066;2022-08-16T05:54:56;12.03;;;11.23;;
8964;SDS011;4517;49.020;12.066;2022-08-16T05:57:21;13.30;;;12.30;;
8964;SDS011;4517;49.020;12.066;2022-08-16T05:59:47;13.80;;;12.73;;
8964;SDS011;4517;49.020;12.066;2022-08-16T06:02:13;13.90;;;12.90;;
8964;SDS011;4517;49.020;12.066;2022-08-16T06:04:39;13.40;;;12.50;;
8964;SDS011;4517;49.020;12.066;2022-08-16T06:07:05;13.50;;;12.60;;
8964;SDS011;4517;49.020;12.066;2022-08-16T06:09:31;12.93;;;11.93;;
8964;SDS011;4517;49.020;12.066;2022-08-16T06:11:57;13.30;;;12.40;;
8964;SDS011;4517;49.020;12.066;2022-08-16T06:14:25;12.37;;;11.60;;
8964;SDS011;4517;49.020;12.066;2022-08-16T06:16:51;13.70;;;12.60;;
8964;SDS011;4517;49.020;12.066;2022-08-16T06:19:17;12.70;;;11.80;;
8964;SDS011;4517;49.020;12.066;2022-08-16T06:21:44;13.13;;;11.83;;
8964;SDS011;4517;49.020;12.066;2022-08-16T06:24:10;13.43;;;12.30;;
8964;SDS011;4517;49.020;12.066;2022-08-16T06:26:36;12.40;;;11.50;;
8964;SDS011;4517;49.020;12.066;2022-08-16T06:29:02;13.37;;;12.30;;
8964;SDS011;4517;49.020;12.066;2022-08-16T06:31:28;13.20;;;11.90;;
8964;SDS011;4517;49.020;12.066;2022-08-16T06:33:53;12.10;;;11.30;;
8964;SDS011;4517;49.020;12.066;2022-08-16T06:36:19;12.60;;;11.70;;
8964;SDS011;4517;49.020;12.066;2022-08-16T06:38:45;12.90;;;11.90;;
8964;SDS011;4517;49.020;12.066;2022-08-16T06:41:10;12.33;;;11.40;;
8964;SDS011;4517;49.020;12.066;2022-08-16T06:43:36;15.50;;;14.00;;
8964;SDS011;4517;49.020;12.066;2022-08-16T06:46:04;12.30;;;11.33;;
8964;SDS011;4517;49.020;12.066;2022-08-16T06:48:33;12.73;;;11.73;;
8964;SDS011;4517;49.020;12.066;2022-08-16T06:51:05;12.60;;;11.40;;
8964;SDS011;4517;49.020;12.066;2022-08-16T06:53:31;12.83;;;12.00;;
8964;SDS011;4517;49.020;12.066;2022-08-16T06:55:59;14.20;;;13.20;;
8964;SDS011;4517;49.020;12.066;2022-08-16T06:58:26;13.07;;;11.87;;
8964;SDS011;4517;49.020;12.066;2022-08-16T07:00:51;12.40;;;11.50;;
8964;SDS011;4517;49.020;12.066;2022-08-16T07:03:17;13.87;;;12.87;;
8964;SDS011;4517;49.020;12.066;2022-08-16T07:05:44;12.70;;;11.77;;
8964;SDS011;4517;49.020;12.066;2022-08-16T07:08:10;13.63;;;12.53;;
8964;SDS011;4517;49.020;12.066;2022-08-16T07:10:35;13.07;;;11.83;;
8964;SDS011;4517;49.020;12.066;2022-08-16T07:13:01;11.90;;;10.90;;
8964;SDS011;4517;49.020;12.066;2022-08-16T07:15:27;11.70;;;10.90;;
8964;SDS011;4517;49.020;12.066;2022-08-16T07:17:53;12.47;;;11.30;;
8964;SDS011;4517;49.020;12.066;2022-08-16T07:20:18;12.10;;;11.00;;
8964;SDS011;4517;49.020;12.066;2022-08-16T07:22:47;11.93;;;11.07;;
8964;SDS011;4517;49.020;12.066;2022-08-16T07:25:12;11.97;;;11.07;;
8964;SDS011;4517;49.020;12.066;2022-08-16T07:27:39;11.40;;;10.60;;
8964;SDS011;4517;49.020;12.066;2022-08-16T07:30:06;12.03;;;10.97;;
8964;SDS011;4517;49.020;12.066;2022-08-16T07:32:35;11.93;;;11.03;;
8964;SDS011;4517;49.020;12.066;2022-08-16T07:35:00;13.00;;;12.00;;
8964;SDS011;4517;49.020;12.066;2022-08-16T07:37:26;11.13;;;10.23;;
8964;SDS011;4517;49.020;12.066;2022-08-16T07:39:52;13.03;;;12.03;;
8964;SDS011;4517;49.020;12.066;2022-08-16T07:42:18;11.10;;;10.30;;
8964;SDS011;4517;49.020;12.066;2022-08-16T07:44:43;11.47;;;10.67;;
8964;SDS011;4517;49.020;12.066;2022-08-16T07:47:09;13.30;;;11.33;;
8964;SDS011;4517;49.020;12.066;2022-08-16T07:49:34;11.73;;;10.83;;
8964;SDS011;4517;49.020;12.066;2022-08-16T07:52:00;12.73;;;11.80;;
8964;SDS011;4517;49.020;12.066;2022-08-16T07:54:26;15.90;;;14.57;;
8964;SDS011;4517;49.020;12.066;2022-08-16T07:56:52;13.37;;;11.97;;
8964;SDS011;4517;49.020;12.066;2022-08-16T07:59:17;11.60;;;10.73;;
8964;SDS011;4517;49.020;12.066;2022-08-16T08:01:43;12.10;;;11.10;;
8964;SDS011;4517;49.020;12.066;2022-08-16T08:04:09;12.27;;;11.47;;
8964;SDS011;4517;49.020;12.066;2022-08-16T08:06:37;12.93;;;11.77;;
8964;SDS011;4517;49.020;12.066;2022-08-16T08:09:03;13.50;;;12.40;;
8964;SDS011;4517;49.020;12.066;2022-08-16T08:11:29;12.43;;;11.57;;
8964;SDS011;4517;49.020;12.066;2022-08-16T08:13:56;12.23;;;11.37;;
8964;SDS011;4517;49.020;12.066;2022-08-16T08:16:25;13.73;;;12.53;;
8964;SDS011;4517;49.020;12.066;2022-08-16T08:18:52;12.03;;;11.10;;
8964;SDS011;4517;49.020;12.066;2022-08-16T08:21:21;12.00;;;10.80;;
8964;SDS011;4517;49.020;12.066;2022-08-16T08:23:49;12.57;;;11.33;;
8964;SDS011;4517;49.020;12.066;2022-08-16T08:26:15;12.47;;;11.27;;
8964;SDS011;4517;49.020;12.066;2022-08-16T08:28:41;10.70;;;9.90;;
8964;SDS011;4517;49.020;12.066;2022-08-16T08:31:07;12.13;;;11.33;;
8964;SDS011;4517;49.020;12.066;2022-08-16T08:33:34;11.40;;;10.43;;
8964;SDS011;4517;49.020;12.066;2022-08-16T08:36:02;11.13;;;10.33;;
8964;SDS011;4517;49.020;12.066;2022-08-16T08:38:31;11.67;;;10.67;;
8964;SDS011;4517;49.020;12.066;2022-08-16T08:40:59;10.80;;;9.93;;
8964;SDS011;4517;49.020;12.066;2022-08-16T08:43:24;11.20;;;10.30;;
8964;SDS011;4517;49.020;12.066;2022-08-16T08:45:50;10.97;;;10.07;;
8964;SDS011;4517;49.020;12.066;2022-08-16T08:48:19;12.60;;;11.30;;
8964;SDS011;4517;49.020;12.066;2022-08-16T08:50:45;12.30;;;11.50;;
8964;SDS011;4517;49.020;12.066;2022-08-16T08:53:13;12.50;;;11.60;;
8964;SDS011;4517;49.020;12.066;2022-08-16T08:55:40;12.03;;;11.00;;
8964;SDS011;4517;49.020;12.066;2022-08-16T08:58:06;11.77;;;10.87;;
8964;SDS011;4517;49.020;12.066;2022-08-16T09:00:31;11.30;;;10.50;;
8964;SDS011;4517;49.020;12.066;2022-08-16T09:02:58;11.27;;;10.47;;
8964;SDS011;4517;49.020;12.066;2022-08-16T09:05:24;13.33;;;10.60;;
8964;SDS011;4517;49.020;12.066;2022-08-16T09:07:51;11.53;;;10.63;;
8964;SDS011;4517;49.020;12.066;2022-08-16T09:10:18;12.40;;;11.40;;
8964;SDS011;4517;49.020;12.066;2022-08-16T09:12:45;13.40;;;12.40;;
8964;SDS011;4517;49.020;12.066;2022-08-16T09:15:12;11.07;;;10.30;;
8964;SDS011;4517;49.020;12.066;2022-08-16T09:17:39;11.87;;;11.17;;
8964;SDS011;4517;49.020;12.066;2022-08-16T09:20:05;10.37;;;9.37;;
8964;SDS011;4517;49.020;12.066;2022-08-16T09:22:32;12.30;;;11.33;;
8964;SDS011;4517;49.020;12.066;2022-08-16T09:24:57;12.57;;;11.47;;
8964;SDS011;4517;49.020;12.066;2022-08-16T09:27:23;12.00;;;11.20;;
8964;SDS011;4517;49.020;12.066;2022-08-16T09:29:49;11.03;;;10.23;;
8964;SDS011;4517;49.020;12.066;2022-08-16T09:32:15;11.60;;;10.50;;
8964;SDS011;4517;49.020;12.066;2022-08-16T09:34:42;12.47;;;11.57;;
8964;SDS011;4517;49.020;12.066;2022-08-16T09:37:08;11.90;;;11.10;;
8964;SDS011;4517;49.020;12.066;2022-08-16T09:39:33;12.73;;;11.77;;
8964;SDS011;4517;49.020;12.066;2022-08-16T09:41:59;13.13;;;11.70;;
8964;SDS011;4517;49.020;12.066;2022-08-16T09:44:25;12.00;;;11.00;;
8964;SDS011;4517;49.020;12.066;2022-08-16T09:46:52;12.00;;;11.10;;
8964;SDS011;4517;49.020;12.066;2022-08-16T09:49:20;11.83;;;11.03;;
8964;SDS011;4517;49.020;12.066;2022-08-16T09:51:46;11.77;;;10.67;;
8964;SDS011;4517;49.020;12.066;2022-08-16T09:54:17;11.73;;;10.77;;
8964;SDS011;4517;49.020;12.066;2022-08-16T09:56:44;12.43;;;11.37;;
8964;SDS011;4517;49.020;12.066;2022-08-16T09:59:10;11.30;;;10.50;;
8964;SDS011;4517;49.020;12.066;2022-08-16T10:01:38;11.57;;;10.67;;
8964;SDS011;4517;49.020;12.066;2022-08-16T10:04:05;11.83;;;11.03;;
8964;SDS011;4517;49.020;12.066;2022-08-16T10:06:31;11.50;;;10.80;;
8964;SDS011;4517;49.020;12.066;2022-08-16T10:08:58;11.07;;;10.37;;
8964;SDS011;4517;49.020;12.066;2022-08-16T10:11:23;12.10;;;11.10;;
8964;SDS011;4517;49.020;12.066;2022-08-16T10:14:07;11.87;;;10.97;;
8964;SDS011;4517;49.020;12.066;2022-08-16T10:16:33;12.13;;;11.30;;
8964;SDS011;4517;49.020;12.066;2022-08-16T10:18:59;12.00;;;11.30;;
8964;SDS011;4517;49.020;12.066;2022-08-16T10:21:24;12.10;;;11.20;;
8964;SDS011;4517;49.020;12.066;2022-08-16T10:23:51;11.67;;;10.90;;
8964;SDS011;4517;49.020;12.066;2022-08-16T10:26:19;12.13;;;11.33;;
8964;SDS011;4517;49.020;12.066;2022-08-16T10:28:45;13.10;;;12.40;;
8964;SDS011;4517;49.020;12.066;2022-08-16T10:31:11;11.27;;;10.50;;
8964;SDS011;4517;49.020;12.066;2022-08-16T10:33:38;11.30;;;10.70;;
8964;SDS011;4517;49.020;12.066;2022-08-16T10:36:04;11.20;;;10.50;;
8964;SDS011;4517;49.020;12.066;2022-08-16T10:38:32;11.20;;;10.40;;
8964;SDS011;4517;49.020;12.066;2022-08-16T10:41:00;11.13;;;10.30;;
8964;SDS011;4517;49.020;12.066;2022-08-16T10:43:26;10.87;;;10.13;;
8964;SDS011;4517;49.020;12.066;2022-08-16T10:45:52;16.00;;;11.43;;
8964;SDS011;4517;49.020;12.066;2022-08-16T10:48:18;10.83;;;10.17;;
8964;SDS011;4517;49.020;12.066;2022-08-16T10:50:44;12.33;;;11.40;;
8964;SDS011;4517;49.020;12.066;2022-08-16T10:53:10;10.47;;;9.77;;
8964;SDS011;4517;49.020;12.066;2022-08-16T10:55:37;11.50;;;10.70;;
8964;SDS011;4517;49.020;12.066;2022-08-16T10:58:05;12.60;;;11.60;;
8964;SDS011;4517;49.020;12.066;2022-08-16T11:00:35;10.93;;;10.33;;
8964;SDS011;4517;49.020;12.066;2022-08-16T11:03:03;12.27;;;11.43;;
8964;SDS011;4517;49.020;12.066;2022-08-16T11:05:30;11.80;;;10.90;;
8964;SDS011;4517;49.020;12.066;2022-08-16T11:07:57;11.43;;;10.73;;
8964;SDS011;4517;49.020;12.066;2022-08-16T11:10:26;12.13;;;11.10;;
8964;SDS011;4517;49.020;12.066;2022-08-16T11:12:54;11.30;;;10.60;;
8964;SDS011;4517;49.020;12.066;2022-08-16T11:15:20;11.90;;;11.10;;
8964;SDS011;4517;49.020;12.066;2022-08-16T11:17:47;11.40;;;10.57;;
8964;SDS011;4517;49.020;12.066;2022-08-16T11:20:14;11.57;;;10.73;;
8964;SDS011;4517;49.020;12.066;2022-08-16T11:22:42;11.10;;;10.30;;
8964;SDS011;4517;49.020;12.066;2022-08-16T11:25:08;11.37;;;10.47;;
8964;SDS011;4517;49.020;12.066;2022-08-16T11:27:35;11.70;;;10.80;;
8964;SDS011;4517;49.020;12.066;2022-08-16T11:30:00;11.87;;;10.87;;
8964;SDS011;4517;49.020;12.066;2022-08-16T11:32:27;11.57;;;10.80;;
8964;SDS011;4517;49.020;12.066;2022-08-16T11:34:54;11.43;;;10.63;;
8964;SDS011;4517;49.020;12.066;2022-08-16T11:37:20;11.70;;;10.90;;
8964;SDS011;4517;49.020;12.066;2022-08-16T11:39:46;10.87;;;10.17;;
8964;SDS011;4517;49.020;12.066;2022-08-16T11:42:12;12.17;;;11.37;;
8964;SDS011;4517;49.020;12.066;2022-08-16T11:44:38;12.40;;;11.30;;
8964;SDS011;4517;49.020;12.066;2022-08-16T11:47:03;12.53;;;11.40;;
8964;SDS011;4517;49.020;12.066;2022-08-16T11:49:29;12.27;;;11.37;;
8964;SDS011;4517;49.020;12.066;2022-08-16T11:51:54;12.17;;;11.33;;
8964;SDS011;4517;49.020;12.066;2022-08-16T11:54:20;12.67;;;11.43;;
8964;SDS011;4517;49.020;12.066;2022-08-16T11:56:45;12.27;;;11.37;;
8964;SDS011;4517;49.020;12.066;2022-08-16T11:59:11;12.00;;;11.17;;
8964;SDS011;4517;49.020;12.066;2022-08-16T12:01:37;11.83;;;11.13;;
8964;SDS011;4517;49.020;12.066;2022-08-16T12:04:02;12.17;;;11.20;;
8964;SDS011;4517;49.020;12.066;2022-08-16T12:06:28;12.20;;;11.30;;
8964;SDS011;4517;49.020;12.066;2022-08-16T12:08:54;12.00;;;11.20;;
8964;SDS011;4517;49.020;12.066;2022-08-16T12:11:24;18.83;;;11.37;;
8964;SDS011;4517;49.020;12.066;2022-08-16T12:13:51;11.53;;;10.83;;
8964;SDS011;4517;49.020;12.066;2022-08-16T12:16:17;11.70;;;10.90;;
8964;SDS011;4517;49.020;12.066;2022-08-16T12:18:43;12.30;;;11.20;;
8964;SDS011;4517;49.020;12.066;2022-08-16T12:21:09;11.73;;;10.93;;
8964;SDS011;4517;49.020;12.066;2022-08-16T12:23:35;10.77;;;10.07;;
8964;SDS011;4517;49.020;12.066;2022-08-16T12:26:00;11.67;;;10.87;;
8964;SDS011;4517;49.020;12.066;2022-08-16T12:28:26;12.03;;;11.23;;
8964;SDS011;4517;49.020;12.066;2022-08-16T12:30:52;10.67;;;9.87;;
8964;SDS011;4517;49.020;12.066;2022-08-16T12:33:17;11.33;;;10.63;;
8964;SDS011;4517;49.020;12.066;2022-08-16T12:35:45;11.90;;;11.10;;
8964;SDS011;4517;49.020;12.066;2022-08-16T12:38:13;10.87;;;10.17;;
8964;SDS011;4517;49.020;12.066;2022-08-16T12:40:41;11.23;;;10.33;;
8964;SDS011;4517;49.020;12.066;2022-08-16T12:43:10;11.57;;;10.57;;
8964;SDS011;4517;49.020;12.066;2022-08-16T12:45:45;11.90;;;11.20;;
8964;SDS011;4517;49.020;12.066;2022-08-16T12:48:13;11.73;;;11.03;;
8964;SDS011;4517;49.020;12.066;2022-08-16T12:50:59;11.10;;;10.30;;
8964;SDS011;4517;49.020;12.066;2022-08-16T12:53:25;11.93;;;11.07;;
8964;SDS011;4517;49.020;12.066;2022-08-16T12:55:50;11.80;;;11.00;;
8964;SDS011;4517;49.020;12.066;2022-08-16T12:58:17;11.43;;;10.40;;
8964;SDS011;4517;49.020;12.066;2022-08-16T13:00:44;11.60;;;10.83;;
8964;SDS011;4517;49.020;12.066;2022-08-16T13:03:10;12.37;;;11.47;;
8964;SDS011;4517;49.020;12.066;2022-08-16T13:05:36;11.63;;;10.83;;
8964;SDS011;4517;49.020;12.066;2022-08-16T13:08:13;12.07;;;11.03;;
8964;SDS011;4517;49.020;12.066;2022-08-16T13:10:42;13.70;;;12.70;;
8964;SDS011;4517;49.020;12.066;2022-08-16T13:13:11;11.53;;;10.83;;
8964;SDS011;4517;49.020;12.066;2022-08-16T13:15:38;12.30;;;11.50;;
8964;SDS011;4517;49.020;12.066;2022-08-16T13:18:04;12.10;;;11.20;;
8964;SDS011;4517;49.020;12.066;2022-08-16T13:20:30;12.73;;;11.77;;
8964;SDS011;4517;49.020;12.066;2022-08-16T13:23:00;11.67;;;10.87;;
8964;SDS011;4517;49.020;12.066;2022-08-16T13:25:28;12.27;;;11.47;;
8964;SDS011;4517;49.020;12.066;2022-08-16T13:27:57;11.97;;;11.07;;
8964;SDS011;4517;49.020;12.066;2022-08-16T13:30:23;12.07;;;11.27;;
8964;SDS011;4517;49.020;12.066;2022-08-16T13:32:50;12.67;;;11.57;;
8964;SDS011;4517;49.020;12.066;2022-08-16T13:35:17;12.50;;;11.50;;
8964;SDS011;4517;49.020;12.066;2022-08-16T13:37:43;12.07;;;11.17;;
8964;SDS011;4517;49.020;12.066;2022-08-16T13:40:08;10.80;;;10.20;;
8964;SDS011;4517;49.020;12.066;2022-08-16T13:42:34;11.90;;;10.90;;
8964;SDS011;4517;49.020;12.066;2022-08-16T13:45:04;11.13;;;10.43;;
8964;SDS011;4517;49.020;12.066;2022-08-16T13:47:31;11.70;;;10.90;;
8964;SDS011;4517;49.020;12.066;2022-08-16T13:49:56;11.57;;;10.77;;
8964;SDS011;4517;49.020;12.066;2022-08-16T13:52:22;11.60;;;10.93;;
8964;SDS011;4517;49.020;12.066;2022-08-16T13:54:48;11.80;;;11.00;;
8964;SDS011;4517;49.020;12.066;2022-08-16T13:57:14;11.90;;;11.10;;
8964;SDS011;4517;49.020;12.066;2022-08-16T13:59:39;11.43;;;10.73;;
8964;SDS011;4517;49.020;12.066;2022-08-16T14:02:08;11.03;;;10.43;;
8964;SDS011;4517;49.020;12.066;2022-08-16T14:04:35;13.73;;;12.90;;
8964;SDS011;4517;49.020;12.066;2022-08-16T14:07:03;10.73;;;10.10;;
8964;SDS011;4517;49.020;12.066;2022-08-16T14:09:32;11.50;;;10.33;;
8964;SDS011;4517;49.020;12.066;2022-08-16T14:12:00;11.67;;;10.70;;
8964;SDS011;4517;49.020;12.066;2022-08-16T14:14:27;10.90;;;10.00;;
8964;SDS011;4517;49.020;12.066;2022-08-16T14:16:53;12.00;;;10.93;;
8964;SDS011;4517;49.020;12.066;2022-08-16T14:19:18;11.90;;;10.80;;
8964;SDS011;4517;49.020;12.066;2022-08-16T14:21:44;11.60;;;10.70;;
8964;SDS011;4517;49.020;12.066;2022-08-16T14:24:11;10.93;;;10.23;;
8964;SDS011;4517;49.020;12.066;2022-08-16T14:26:40;14.00;;;11.07;;
8964;SDS011;4517;49.020;12.066;2022-08-16T14:29:07;11.83;;;10.90;;
8964;SDS011;4517;49.020;12.066;2022-08-16T14:31:33;10.57;;;9.87;;
8964;SDS011;4517;49.020;12.066;2022-08-16T14:33:59;10.90;;;10.20;;
8964;SDS011;4517;49.020;12.066;2022-08-16T14:36:26;11.27;;;10.57;;
8964;SDS011;4517;49.020;12.066;2022-08-16T14:38:52;10.87;;;10.17;;
8964;SDS011;4517;49.020;12.066;2022-08-16T14:41:17;17.17;;;16.03;;
8964;SDS011;4517;49.020;12.066;2022-08-16T14:43:43;11.33;;;10.40;;